createdAt,value
2023-01-29T03:48:40.218Z,13.13
2023-01-29T08:18:40.569Z,59.14
2023-01-29T08:33:40.047Z,47.17
2023-01-29T09:03:40.623Z,15.96
2023-01-29T09:18:40.715Z,35.01
2023-01-29T09:33:40.923Z,18.29
2023-01-29T10:18:40.122Z,17.39
2023-01-29T11:03:40.326Z,14.07
2023-01-29T11:18:40.959Z,18.79
2023-01-29T11:33:40.553Z,13.68
2023-01-29T11:48:40.666Z,16.49
2023-01-29T12:03:40.380Z,19.39
2023-01-29T12:18:40.472Z,26.41
2023-01-29T12:33:40.751Z,22.84
2023-01-29T12:48:40.462Z,20.24
2023-01-29T13:03:40.247Z,19.18
2023-01-29T13:18:40.743Z,18.36
2023-01-29T13:33:40.976Z,18.73
2023-01-29T13:48:40.571Z,22.05
2023-01-29T14:18:40.431Z,23.51
2023-01-29T14:33:41.677Z,25.07
2023-01-29T14:48:39.845Z,24.61
2023-01-29T15:03:40.843Z,25.69
2023-01-29T15:18:40.772Z,27.4
2023-01-29T15:33:40.576Z,42.03
2023-01-29T15:48:40.461Z,32.67
2023-01-29T16:03:40.750Z,32.35
2023-01-29T16:18:47.693Z,47.15
2023-01-29T16:33:40.216Z,54.19
2023-01-29T17:03:40.505Z,47.92
2023-01-29T17:18:39.939Z,53.69
2023-01-29T17:33:40.652Z,36.44
2023-01-29T17:48:40.594Z,39.24
2023-01-29T18:03:40.833Z,49.75
2023-01-29T18:18:40.210Z,41.37
2023-01-29T18:33:40.868Z,49.73
2023-01-29T18:48:42.343Z,40.55
2023-01-29T19:03:40.755Z,59.56
2023-01-29T19:18:40.141Z,52.88
2023-01-29T19:33:40.285Z,58.32
2023-01-29T19:48:40.193Z,50.85
2023-01-29T20:03:40.285Z,51.01
2023-01-29T20:18:40.800Z,57.57
2023-01-29T20:33:40.894Z,41.66
2023-01-29T20:48:41.420Z,30.2
2023-01-29T21:03:41.252Z,37.69
2023-01-29T21:18:41.174Z,32.72
2023-01-29T21:33:45.882Z,31.86
2023-01-29T22:48:40.996Z,16.73
2023-01-29T23:03:40.801Z,13.36
